createdAt,value
2022-08-03T00:00:02.213Z,17.55
2022-08-03T00:03:04.565Z,17.51
2022-08-03T00:05:37.497Z,17.49
2022-08-03T00:08:09.726Z,17.47
2022-08-03T00:10:41.893Z,17.45
2022-08-03T00:13:14.129Z,17.45
2022-08-03T00:15:46.505Z,17.46
2022-08-03T00:18:18.815Z,17.45
2022-08-03T00:20:50.910Z,17.44
2022-08-03T00:23:23.085Z,17.40
2022-08-03T00:25:55.588Z,17.36
2022-08-03T00:28:27.958Z,17.33
2022-08-03T00:31:00.101Z,17.31
2022-08-03T00:33:32.215Z,17.30
2022-08-03T00:36:24.042Z,17.27
2022-08-03T00:38:56.798Z,17.26
2022-08-03T00:41:29.104Z,17.26
2022-08-03T00:44:01.189Z,17.24
2022-08-03T00:46:33.598Z,17.22
2022-08-03T00:49:06.046Z,17.20
2022-08-03T00:51:38.097Z,17.18
2022-08-03T00:54:10.977Z,17.16
2022-08-03T00:56:59.521Z,17.14
2022-08-03T00:59:32.941Z,17.14
2022-08-03T01:02:09.910Z,17.14
2022-08-03T01:04:42.753Z,17.12
2022-08-03T01:07:21.104Z,17.08
2022-08-03T01:10:00.425Z,17.02
2022-08-03T01:12:40.076Z,16.99
2022-08-03T01:15:18.784Z,16.97
2022-08-03T01:17:57.531Z,16.95
2022-08-03T01:20:34.090Z,16.92
2022-08-03T01:23:36.285Z,16.92
2022-08-03T01:26:28.019Z,16.90
2022-08-03T01:29:20.728Z,16.86
2022-08-03T01:32:53.579Z,16.86
2022-08-03T01:35:00.174Z,16.84
2022-08-03T01:37:38.775Z,16.81
2022-08-03T01:40:14.432Z,16.80
2022-08-03T01:42:49.004Z,16.78
2022-08-03T01:45:23.482Z,16.77
2022-08-03T01:47:56.751Z,16.76
2022-08-03T01:50:31.960Z,16.76
2022-08-03T01:53:04.905Z,16.75
2022-08-03T01:55:39.144Z,16.74
2022-08-03T01:58:11.333Z,16.74
2022-08-03T02:00:50.297Z,16.75
2022-08-03T02:03:25.575Z,16.76
2022-08-03T02:06:58.944Z,16.76
2022-08-03T02:08:53.895Z,16.73
2022-08-03T02:11:26.232Z,16.70
2022-08-03T02:14:02.101Z,16.69
2022-08-03T02:16:35.996Z,16.67
2022-08-03T02:19:11.801Z,16.66
2022-08-03T02:21:55.843Z,16.61
2022-08-03T02:24:34.010Z,16.58
2022-08-03T02:27:09.141Z,16.51
2022-08-03T02:29:42.899Z,16.41
2022-08-03T02:32:18.998Z,16.36
2022-08-03T02:34:55.459Z,16.36
2022-08-03T02:37:32.190Z,16.36
2022-08-03T02:40:07.400Z,16.36
2022-08-03T02:42:42.313Z,16.37
2022-08-03T02:45:18.225Z,16.35
2022-08-03T02:47:54.963Z,16.33
2022-08-03T02:50:30.475Z,16.32
2022-08-03T02:53:04.274Z,16.30
2022-08-03T02:55:45.683Z,16.27
2022-08-03T02:58:21.842Z,16.26
2022-08-03T03:00:56.403Z,16.25
2022-08-03T03:03:29.810Z,16.26
2022-08-03T03:06:10.464Z,16.25
2022-08-03T03:08:42.767Z,16.26
2022-08-03T03:11:19.226Z,16.25
2022-08-03T03:13:52.365Z,16.26
2022-08-03T03:16:27.271Z,16.29
2022-08-03T03:19:01.116Z,16.31
2022-08-03T03:21:34.735Z,16.31
2022-08-03T03:24:09.235Z,16.30
2022-08-03T03:26:42.454Z,16.27
2022-08-03T03:29:14.910Z,16.28
2022-08-03T03:31:47.485Z,16.34
2022-08-03T03:34:20.332Z,16.42
2022-08-03T03:36:52.566Z,16.49
2022-08-03T03:39:24.627Z,16.53
2022-08-03T03:41:57.510Z,16.55
2022-08-03T03:44:31.421Z,16.59
2022-08-03T03:47:03.987Z,16.61
2022-08-03T03:49:37.400Z,16.62
2022-08-03T03:52:10.046Z,16.64
2022-08-03T03:54:46.506Z,16.69
2022-08-03T03:57:18.857Z,16.73
2022-08-03T03:59:50.930Z,16.81
2022-08-03T04:02:22.974Z,16.88
2022-08-03T04:05:12.842Z,16.93
2022-08-03T04:08:14.073Z,16.96
2022-08-03T04:11:00.911Z,16.99
2022-08-03T04:13:35.519Z,17.02
2022-08-03T04:16:11.950Z,17.03
2022-08-03T04:18:49.001Z,17.11
2022-08-03T04:21:25.441Z,17.38
2022-08-03T04:24:00.240Z,17.78
2022-08-03T04:26:37.592Z,18.26
2022-08-03T04:29:13.037Z,18.79
2022-08-03T04:31:47.182Z,19.26
2022-08-03T04:34:19.736Z,19.75
2022-08-03T04:36:54.981Z,20.26
2022-08-03T04:39:29.330Z,20.76
2022-08-03T04:42:08.064Z,21.22
2022-08-03T04:44:43.868Z,21.60
2022-08-03T04:47:16.087Z,21.80
2022-08-03T04:49:48.871Z,21.87
2022-08-03T04:52:21.413Z,22.01
2022-08-03T04:54:53.418Z,22.24
2022-08-03T04:57:25.636Z,22.61
2022-08-03T05:00:02.519Z,23.04
2022-08-03T05:02:35.198Z,23.48
2022-08-03T05:05:08.110Z,23.87
2022-08-03T05:07:40.886Z,24.21
2022-08-03T05:10:16.110Z,24.46
2022-08-03T05:12:51.801Z,24.78
2022-08-03T05:15:23.886Z,25.12
2022-08-03T05:17:56.217Z,25.41
2022-08-03T05:20:28.326Z,25.70
2022-08-03T05:23:01.692Z,25.86
2022-08-03T05:25:34.442Z,25.99
2022-08-03T05:28:06.961Z,26.16
2022-08-03T05:30:39.786Z,26.33
2022-08-03T05:33:12.015Z,26.45
2022-08-03T05:36:01.459Z,26.61
2022-08-03T05:38:36.441Z,26.82
2022-08-03T05:41:22.197Z,27.07
2022-08-03T05:43:56.641Z,27.49
2022-08-03T05:46:28.667Z,27.74
2022-08-03T05:49:00.845Z,27.80
2022-08-03T05:51:33.166Z,27.68
2022-08-03T05:54:05.717Z,27.64
2022-08-03T05:56:38.144Z,27.78
2022-08-03T05:59:35.794Z,28.08
2022-08-03T06:02:02.384Z,28.64
2022-08-03T06:04:34.547Z,29.21
2022-08-03T06:07:06.798Z,29.45
2022-08-03T06:10:33.186Z,29.71
2022-08-03T06:12:31.294Z,29.80
2022-08-03T06:15:03.965Z,29.59
2022-08-03T06:17:37.482Z,29.25
2022-08-03T06:20:11.976Z,28.94
2022-08-03T06:22:51.065Z,28.71
2022-08-03T06:25:23.606Z,28.66
2022-08-03T06:27:55.686Z,28.52
2022-08-03T06:30:27.881Z,28.23
2022-08-03T06:33:00.141Z,28.01
2022-08-03T06:35:32.409Z,27.82
2022-08-03T06:38:07.167Z,27.74
2022-08-03T06:40:40.303Z,27.89
2022-08-03T06:43:14.000Z,28.21
2022-08-03T06:45:48.314Z,28.50
2022-08-03T06:48:20.729Z,28.78
2022-08-03T06:50:52.874Z,29.16
2022-08-03T06:53:24.925Z,29.62
2022-08-03T06:55:57.115Z,30.01
2022-08-03T06:58:29.292Z,30.35
2022-08-03T07:01:01.910Z,30.55
2022-08-03T07:03:34.104Z,30.84
2022-08-03T07:06:06.399Z,30.99
2022-08-03T07:08:38.598Z,31.30
2022-08-03T07:11:10.517Z,31.64
2022-08-03T07:13:42.559Z,31.91
2022-08-03T07:16:14.855Z,31.85
2022-08-03T07:18:47.007Z,31.71
2022-08-03T07:21:19.185Z,31.71
2022-08-03T07:23:51.206Z,31.91
2022-08-03T07:26:23.410Z,32.14
2022-08-03T07:28:55.625Z,32.48
2022-08-03T07:31:27.846Z,32.72
2022-08-03T07:34:06.350Z,32.99
2022-08-03T07:36:38.576Z,33.23
2022-08-03T07:39:16.002Z,33.51
2022-08-03T07:41:51.718Z,33.92
2022-08-03T07:44:23.817Z,34.17
2022-08-03T07:46:57.321Z,34.40
2022-08-03T07:49:30.742Z,34.53
2022-08-03T07:52:21.024Z,34.62
2022-08-03T07:55:00.876Z,34.89
2022-08-03T07:57:32.960Z,35.11
2022-08-03T08:00:07.535Z,35.25
2022-08-03T08:02:45.713Z,35.37
2022-08-03T08:05:18.309Z,35.49
2022-08-03T08:07:51.149Z,35.67
2022-08-03T08:10:24.174Z,35.67
2022-08-03T08:12:56.467Z,35.71
2022-08-03T08:15:29.111Z,35.75
2022-08-03T08:18:02.648Z,35.89
2022-08-03T08:20:41.876Z,35.88
2022-08-03T08:23:37.766Z,35.91
2022-08-03T08:26:07.890Z,35.94
2022-08-03T08:28:40.289Z,35.86
2022-08-03T08:31:12.403Z,35.70
2022-08-03T08:36:37.488Z,35.87
2022-08-03T08:39:09.622Z,35.94
2022-08-03T08:41:46.104Z,36.14
2022-08-03T08:44:19.427Z,36.25
2022-08-03T08:46:54.981Z,36.05
2022-08-03T08:49:30.521Z,36.04
2022-08-03T08:52:04.524Z,35.99
2022-08-03T08:55:00.224Z,35.94
2022-08-03T08:57:42.855Z,36.14
2022-08-03T09:00:17.785Z,36.33
2022-08-03T09:02:49.925Z,36.35
2022-08-03T09:05:41.401Z,36.25
2022-08-03T09:08:15.492Z,36.22
2022-08-03T09:10:48.147Z,36.20
2022-08-03T09:13:20.418Z,36.17
2022-08-03T09:16:12.427Z,36.06
2022-08-03T09:18:46.445Z,36.01
2022-08-03T09:21:33.906Z,36.03
2022-08-03T09:24:16.559Z,36.02
2022-08-03T09:26:58.127Z,36.04
2022-08-03T09:29:34.831Z,36.13
2022-08-03T09:32:07.626Z,36.14
2022-08-03T09:34:39.919Z,36.13
2022-08-03T09:37:16.802Z,36.21
2022-08-03T09:39:49.487Z,36.30
2022-08-03T09:42:24.250Z,36.35
2022-08-03T09:44:58.049Z,36.52
2022-08-03T09:47:34.316Z,36.61
2022-08-03T09:50:10.747Z,36.57
2022-08-03T09:52:50.235Z,36.35
2022-08-03T09:56:33.687Z,36.31
2022-08-03T09:58:17.191Z,36.38
2022-08-03T10:00:58.433Z,36.43
2022-08-03T10:03:33.259Z,36.69
2022-08-03T10:06:19.792Z,36.86
2022-08-03T10:09:08.311Z,36.98
2022-08-03T10:11:42.430Z,37.13
2022-08-03T10:14:19.317Z,37.19
2022-08-03T10:16:52.099Z,37.42
2022-08-03T10:19:25.674Z,37.60
2022-08-03T10:22:02.441Z,37.72
2022-08-03T10:24:37.693Z,37.72
2022-08-03T10:27:12.111Z,37.68
2022-08-03T10:29:49.595Z,37.54
2022-08-03T10:32:29.195Z,37.40
2022-08-03T10:35:19.126Z,37.32
2022-08-03T10:37:59.184Z,37.24
2022-08-03T10:40:47.985Z,37.25
2022-08-03T10:43:24.126Z,37.35
2022-08-03T10:45:57.470Z,36.86
2022-08-03T10:48:31.745Z,36.11
2022-08-03T10:51:05.098Z,35.50
2022-08-03T10:53:44.056Z,35.25
2022-08-03T10:57:01.850Z,34.99
2022-08-03T11:00:04.971Z,34.75
2022-08-03T11:03:14.542Z,34.55
2022-08-03T11:05:49.243Z,34.16
2022-08-03T11:08:28.027Z,33.67
2022-08-03T11:11:28.877Z,33.17
2022-08-03T11:14:04.753Z,32.71
2022-08-03T11:16:41.774Z,32.40
2022-08-03T11:19:16.748Z,32.27
2022-08-03T11:21:59.485Z,32.25
2022-08-03T11:25:04.644Z,32.23
2022-08-03T11:27:37.746Z,32.18
2022-08-03T11:30:14.095Z,32.10
2022-08-03T11:33:02.692Z,32.01
2022-08-03T11:35:36.087Z,31.85
2022-08-03T11:38:15.259Z,31.70
2022-08-03T11:40:50.850Z,31.56
2022-08-03T11:43:47.047Z,31.46
2022-08-03T11:46:28.578Z,31.41
2022-08-03T11:49:10.823Z,31.28
2022-08-03T11:51:43.481Z,31.19
2022-08-03T11:54:15.557Z,31.08
2022-08-03T11:56:49.177Z,30.99
2022-08-03T11:59:32.743Z,30.87
2022-08-03T12:02:11.225Z,30.76
2022-08-03T12:04:54.392Z,30.61
2022-08-03T12:08:04.284Z,30.51
2022-08-03T12:10:21.524Z,30.43
2022-08-03T12:12:58.500Z,30.36
2022-08-03T12:15:34.097Z,30.36
2022-08-03T12:18:15.174Z,30.37
2022-08-03T12:20:48.367Z,30.40
2022-08-03T12:23:20.965Z,30.47
2022-08-03T12:25:53.546Z,30.47
2022-08-03T12:28:36.330Z,30.34
2022-08-03T12:31:11.120Z,30.29
2022-08-03T12:34:03.370Z,30.29
2022-08-03T12:36:39.395Z,30.32
2022-08-03T12:39:13.500Z,30.35
2022-08-03T12:41:45.782Z,30.34
2022-08-03T12:44:18.368Z,30.36
2022-08-03T12:47:00.322Z,30.41
2022-08-03T12:49:47.851Z,30.41
2022-08-03T12:52:21.092Z,30.39
2022-08-03T12:54:59.592Z,30.39
2022-08-03T12:57:44.904Z,30.34
2022-08-03T13:00:28.645Z,30.25
2022-08-03T13:06:00.361Z,30.11
2022-08-03T13:08:32.992Z,30.09
2022-08-03T13:11:20.800Z,30.09
2022-08-03T13:13:53.618Z,30.10
2022-08-03T13:16:26.349Z,30.11
2022-08-03T13:18:58.590Z,30.10
2022-08-03T13:21:30.658Z,30.07
2022-08-03T13:24:03.122Z,30.00
2022-08-03T13:26:35.411Z,29.91
2022-08-03T13:29:07.470Z,29.87
2022-08-03T13:31:50.614Z,29.86
2022-08-03T13:34:24.120Z,29.87
2022-08-03T13:37:08.813Z,29.87
2022-08-03T13:39:57.361Z,29.88
2022-08-03T13:42:33.479Z,29.90
2022-08-03T13:45:09.052Z,29.92
2022-08-03T13:47:41.141Z,29.94
2022-08-03T13:50:13.381Z,29.91
2022-08-03T13:52:46.479Z,29.93
2022-08-03T13:55:18.516Z,29.98
2022-08-03T13:58:04.905Z,30.02
2022-08-03T14:00:39.825Z,30.03
2022-08-03T14:03:14.419Z,30.03
2022-08-03T14:05:47.737Z,30.03
2022-08-03T14:08:19.831Z,29.99
2022-08-03T14:10:52.001Z,29.95
2022-08-03T14:13:25.155Z,29.96
2022-08-03T14:15:57.227Z,29.98
2022-08-03T14:18:33.402Z,30.01
2022-08-03T14:21:07.586Z,30.04
2022-08-03T14:23:45.674Z,30.04
2022-08-03T14:26:19.024Z,30.03
2022-08-03T14:28:54.248Z,30.00
2022-08-03T14:32:12.095Z,29.96
2022-08-03T14:34:25.682Z,29.91
2022-08-03T14:36:59.641Z,29.91
2022-08-03T14:42:30.614Z,29.90
2022-08-03T14:45:09.649Z,29.85
2022-08-03T14:50:29.739Z,29.84
2022-08-03T14:50:55.903Z,29.86
2022-08-03T14:53:30.453Z,29.87
2022-08-03T14:56:11.538Z,29.86
2022-08-03T14:58:48.559Z,29.81
2022-08-03T15:02:05.604Z,29.76
2022-08-03T15:04:14.196Z,29.72
2022-08-03T15:06:46.265Z,29.70
2022-08-03T15:09:24.291Z,29.68
2022-08-03T15:11:56.800Z,29.66
2022-08-03T15:14:33.197Z,29.64
2022-08-03T15:17:07.790Z,29.62
2022-08-03T15:20:02.915Z,29.59
2022-08-03T15:22:34.644Z,29.57
2022-08-03T15:26:03.974Z,29.53
2022-08-03T15:28:04.209Z,29.48
2022-08-03T15:30:38.817Z,29.46
2022-08-03T15:33:10.799Z,29.42
2022-08-03T15:35:42.979Z,29.40
2022-08-03T15:38:17.191Z,29.39
2022-08-03T15:40:49.559Z,29.38
2022-08-03T15:43:22.101Z,29.36
2022-08-03T15:46:19.527Z,29.35
2022-08-03T15:48:46.659Z,29.34
2022-08-03T15:51:18.846Z,29.36
2022-08-03T15:53:50.780Z,29.35
2022-08-03T15:56:22.916Z,29.36
2022-08-03T15:59:11.070Z,29.32
2022-08-03T16:01:46.056Z,29.31
2022-08-03T16:04:18.153Z,29.28
2022-08-03T16:06:50.465Z,29.25
2022-08-03T16:09:23.899Z,29.23
2022-08-03T16:12:16.289Z,29.19
2022-08-03T16:14:53.393Z,29.15
2022-08-03T16:17:26.323Z,29.12
2022-08-03T16:19:58.738Z,29.10
2022-08-03T16:22:32.632Z,29.09
2022-08-03T16:25:05.887Z,29.09
2022-08-03T16:27:58.438Z,29.08
2022-08-03T16:30:40.107Z,29.07
2022-08-03T16:33:16.701Z,29.05
2022-08-03T16:35:50.437Z,29.04
2022-08-03T16:38:23.281Z,29.02
2022-08-03T16:40:55.584Z,29.00
2022-08-03T16:43:28.486Z,28.97
2022-08-03T16:46:00.549Z,28.95
2022-08-03T16:48:32.647Z,28.94
2022-08-03T16:51:04.741Z,28.90
2022-08-03T16:54:05.332Z,28.86
2022-08-03T16:56:29.296Z,28.83
2022-08-03T16:59:01.849Z,28.78
2022-08-03T17:01:37.911Z,28.73
2022-08-03T17:04:11.233Z,28.72
2022-08-03T17:06:47.004Z,28.72
2022-08-03T17:09:20.580Z,28.71
2022-08-03T17:11:53.595Z,28.69
2022-08-03T17:14:28.260Z,28.66
2022-08-03T17:17:04.753Z,28.63
2022-08-03T17:19:47.168Z,28.61
2022-08-03T17:22:22.683Z,28.58
2022-08-03T17:24:55.859Z,28.56
2022-08-03T17:28:43.101Z,28.53
2022-08-03T17:30:43.279Z,28.50
2022-08-03T17:33:20.554Z,28.47
2022-08-03T17:35:56.583Z,28.42
2022-08-03T17:38:31.891Z,28.36
2022-08-03T17:41:10.968Z,28.30
2022-08-03T17:44:14.935Z,28.24
2022-08-03T17:46:37.606Z,28.18
2022-08-03T17:49:24.706Z,28.11
2022-08-03T17:52:04.989Z,28.00
2022-08-03T17:55:50.537Z,27.91
2022-08-03T17:58:01.482Z,27.83
2022-08-03T18:00:54.000Z,27.75
2022-08-03T18:03:57.898Z,27.65
2022-08-03T18:06:36.502Z,27.57
2022-08-03T18:10:06.793Z,27.46
2022-08-03T18:12:07.103Z,27.37
2022-08-03T18:14:57.306Z,27.28
2022-08-03T18:17:55.836Z,27.17
2022-08-03T18:20:41.200Z,27.03
2022-08-03T18:23:25.261Z,26.92
2022-08-03T18:26:12.230Z,26.82
2022-08-03T18:28:46.497Z,26.70
2022-08-03T18:32:03.819Z,26.62
2022-08-03T18:34:33.176Z,26.54
2022-08-03T18:37:08.673Z,26.47
2022-08-03T18:39:49.832Z,26.39
2022-08-03T18:42:25.735Z,26.29
2022-08-03T18:44:59.807Z,26.19
2022-08-03T18:48:05.128Z,26.07
2022-08-03T18:50:48.283Z,25.95
2022-08-03T18:54:03.469Z,25.84
2022-08-03T18:56:34.985Z,25.71
2022-08-03T18:59:16.766Z,25.60
2022-08-03T19:02:09.235Z,25.46
2022-08-03T19:04:47.867Z,25.30
2022-08-03T19:07:26.696Z,25.16
2022-08-03T19:10:04.648Z,25.02
2022-08-03T19:12:46.684Z,24.93
2022-08-03T19:15:21.199Z,24.86
2022-08-03T19:18:12.698Z,24.76
2022-08-03T19:20:55.837Z,24.67
2022-08-03T19:23:30.862Z,24.56
2022-08-03T19:26:07.573Z,24.46
2022-08-03T19:29:00.682Z,24.34
2022-08-03T19:31:35.126Z,24.24
2022-08-03T19:34:09.723Z,24.15
2022-08-03T19:36:44.881Z,24.03
2022-08-03T19:39:18.091Z,23.92
2022-08-03T19:45:11.298Z,23.69
2022-08-03T19:47:56.831Z,23.61
2022-08-03T19:50:33.606Z,23.53
2022-08-03T19:53:11.792Z,23.44
2022-08-03T19:55:48.791Z,23.38
2022-08-03T19:58:28.541Z,23.30
2022-08-03T20:03:55.202Z,23.21
2022-08-03T20:06:27.952Z,23.13
2022-08-03T20:09:01.396Z,23.04
2022-08-03T20:11:45.227Z,22.98
2022-08-03T20:14:26.558Z,22.92
2022-08-03T20:16:59.463Z,22.86
2022-08-03T20:19:35.864Z,22.75
2022-08-03T20:22:14.425Z,22.66
2022-08-03T20:24:53.055Z,22.49
2022-08-03T20:27:30.056Z,22.41
2022-08-03T20:30:07.311Z,22.37
2022-08-03T20:32:41.536Z,22.31
2022-08-03T20:35:14.024Z,22.25
2022-08-03T20:37:46.207Z,22.21
2022-08-03T20:40:18.741Z,22.14
2022-08-03T20:42:52.010Z,22.07
2022-08-03T20:45:58.577Z,22.01
2022-08-03T20:48:18.458Z,21.91
2022-08-03T20:50:56.455Z,21.80
2022-08-03T20:53:56.945Z,21.71
2022-08-03T20:56:22.823Z,21.65
2022-08-03T20:58:57.759Z,21.59
2022-08-03T21:01:36.419Z,21.54
2022-08-03T21:04:11.070Z,21.50
2022-08-03T21:06:53.106Z,21.48
2022-08-03T21:09:33.318Z,21.44
2022-08-03T21:12:08.694Z,21.43
2022-08-03T21:13:10.183Z,23.83
2022-08-03T21:13:10.857Z,23.25
2022-08-03T21:14:46.896Z,21.42
2022-08-03T21:17:39.895Z,21.40
2022-08-03T21:20:15.836Z,21.39
2022-08-03T21:22:53.387Z,21.37
2022-08-03T21:25:28.324Z,21.30
2022-08-03T21:28:01.639Z,21.22
2022-08-03T21:30:34.539Z,21.18
2022-08-03T21:33:07.788Z,21.16
2022-08-03T21:35:39.979Z,21.16
2022-08-03T21:38:29.789Z,21.17
2022-08-03T21:41:04.172Z,21.14
2022-08-03T21:43:36.478Z,21.09
2022-08-03T21:46:09.688Z,21.04
2022-08-03T21:48:43.084Z,20.98
2022-08-03T21:51:19.371Z,20.91
2022-08-03T21:54:04.299Z,20.85
2022-08-03T21:56:42.944Z,20.78
2022-08-03T21:59:19.830Z,20.72
2022-08-03T22:01:58.395Z,20.65
2022-08-03T22:04:50.612Z,20.58
2022-08-03T22:07:27.374Z,20.51
2022-08-03T22:10:02.575Z,20.43
2022-08-03T22:12:36.110Z,20.37
2022-08-03T22:15:13.202Z,20.31
2022-08-03T22:17:55.959Z,20.24
2022-08-03T22:20:31.327Z,20.13
2022-08-03T22:23:07.052Z,20.00
2022-08-03T22:25:42.985Z,19.91
2022-08-03T22:28:17.206Z,19.86
2022-08-03T22:30:51.111Z,19.84
2022-08-03T22:33:26.183Z,19.82
2022-08-03T22:36:01.571Z,19.81
2022-08-03T22:38:35.477Z,19.78
2022-08-03T22:41:09.137Z,19.75
2022-08-03T22:43:42.319Z,19.70
2022-08-03T22:46:18.794Z,19.66
2022-08-03T22:48:51.955Z,19.64
2022-08-03T22:51:25.139Z,19.64
2022-08-03T22:53:58.367Z,19.64
2022-08-03T22:56:31.050Z,19.63
2022-08-03T22:59:39.989Z,19.59
2022-08-03T23:02:01.638Z,19.52
2022-08-03T23:04:50.389Z,19.42
2022-08-03T23:07:35.519Z,19.42
2022-08-03T23:10:11.245Z,19.42
2022-08-03T23:12:45.514Z,19.42
2022-08-03T23:15:18.792Z,19.41
2022-08-03T23:17:57.988Z,19.40
2022-08-03T23:20:31.459Z,19.39
2022-08-03T23:23:05.271Z,19.38
2022-08-03T23:25:41.276Z,19.35
2022-08-03T23:28:17.341Z,19.32
2022-08-03T23:30:51.624Z,19.31
2022-08-03T23:33:24.417Z,19.29
2022-08-03T23:36:28.256Z,19.31
2022-08-03T23:38:56.364Z,19.34
2022-08-03T23:41:29.316Z,19.34
2022-08-03T23:44:02.259Z,19.31
2022-08-03T23:46:37.060Z,19.29
2022-08-03T23:49:09.449Z,19.30
2022-08-03T23:51:53.591Z,19.29
2022-08-03T23:54:39.228Z,19.28
2022-08-03T23:57:18.941Z,19.25
